Time;durP1;ratioP1;P1;durP2;ratioP2;P2;SDS_P1;SDS_P2;PMS_P1;PMS_P2;Temp;Humidity;BMP_temperature;BMP_pressure;BME280_temperature;BME280_humidity;BME280_pressure;Samples;Min_cycle;Max_cycle;Signal;HPM_P1;HPM_P2
2023/05/17 00:00:10;;;;;;;10.00;2.92;;;11.10;16.50;;;;;;5057090;28;20071;-63
2023/05/17 00:02:36;;;;;;;14.55;3.10;;;11.10;16.70;;;;;;5057444;28;20037;-63
2023/05/17 00:05:02;;;;;;;11.40;3.03;;;11.10;16.70;;;;;;5057423;28;20297;-62
2023/05/17 00:07:28;;;;;;;10.93;3.75;;;11.10;15.40;;;;;;5057699;28;20296;-63
2023/05/17 00:09:54;;;;;;;7.72;3.00;;;11.00;18.40;;;;;;5057747;28;20066;-62
2023/05/17 00:12:20;;;;;;;12.40;3.15;;;11.00;19.90;;;;;;5057023;28;20037;-63
2023/05/17 00:14:46;;;;;;;9.68;2.67;;;11.00;18.50;;;;;;5057443;28;20112;-63
2023/05/17 00:17:11;;;;;;;9.27;3.50;;;11.00;21.10;;;;;;5056676;28;20021;-63
2023/05/17 00:19:37;;;;;;;13.25;3.50;;;11.00;18.10;;;;;;5056629;28;20024;-62
2023/05/17 00:22:03;;;;;;;13.57;3.30;;;11.00;19.80;;;;;;5057775;28;20025;-63
2023/05/17 00:24:29;;;;;;;14.32;3.35;;;11.00;21.90;;;;;;5056641;28;20075;-63
2023/05/17 00:26:55;;;;;;;8.63;2.85;;;11.00;26.20;;;;;;5056880;28;20285;-62
2023/05/17 00:29:20;;;;;;;11.35;3.80;;;10.90;28.40;;;;;;5057409;28;20478;-62
2023/05/17 00:31:46;;;;;;;12.38;3.65;;;11.00;27.20;;;;;;5057757;28;20025;-63
2023/05/17 00:34:12;;;;;;;13.70;3.67;;;11.00;27.00;;;;;;5056423;28;20033;-64
2023/05/17 00:36:38;;;;;;;16.25;3.97;;;10.90;26.80;;;;;;5057154;28;20040;-63
2023/05/17 00:39:03;;;;;;;11.93;3.40;;;10.90;31.20;;;;;;5056332;28;20124;-62
2023/05/17 00:41:29;;;;;;;10.00;3.08;;;10.80;28.20;;;;;;5056319;28;20399;-63
2023/05/17 00:43:55;;;;;;;10.32;3.03;;;10.90;30.20;;;;;;5023182;28;20132;-63
2023/05/17 00:46:21;;;;;;;9.27;2.88;;;10.90;30.50;;;;;;5056322;28;20041;-64
2023/05/17 00:48:47;;;;;;;10.02;2.95;;;10.80;29.30;;;;;;5056937;28;20029;-62
2023/05/17 00:51:15;;;;;;;13.85;3.05;;;10.80;35.00;;;;;;5056164;28;20017;-62
2023/05/17 00:53:42;;;;;;;9.23;2.53;;;10.90;34.20;;;;;;5056172;28;20048;-63
2023/05/17 00:56:08;;;;;;;11.40;2.78;;;10.90;30.10;;;;;;5056310;28;20029;-63
2023/05/17 00:58:36;;;;;;;9.85;2.78;;;10.80;34.70;;;;;;5056083;28;20040;-63
2023/05/17 01:01:02;;;;;;;12.88;3.30;;;10.80;38.90;;;;;;5055944;28;20280;-63
2023/05/17 01:03:28;;;;;;;10.93;3.00;;;10.80;37.10;;;;;;5056240;28;20117;-63
2023/05/17 01:05:54;;;;;;;10.20;2.67;;;10.80;39.50;;;;;;5056472;28;20133;-64
2023/05/17 01:08:20;;;;;;;8.45;2.40;;;10.80;40.80;;;;;;5056708;28;20086;-63
2023/05/17 01:10:53;;;;;;;9.52;2.92;;;10.80;41.00;;;;;;5055933;28;20308;-63
2023/05/17 01:13:30;;;;;;;14.02;3.40;;;10.80;41.30;;;;;;5056581;28;20024;-63
2023/05/17 01:16:24;;;;;;;13.35;2.92;;;10.80;42.10;;;;;;5056604;28;20048;-63
2023/05/17 01:19:11;;;;;;;10.32;2.80;;;10.80;43.50;;;;;;5056519;28;20043;-64
2023/05/17 01:22:16;;;;;;;11.93;2.83;;;10.70;47.10;;;;;;5057541;28;20033;-64
2023/05/17 01:24:54;;;;;;;12.88;3.53;;;10.70;51.00;;;;;;5060749;28;20110;-64
2023/05/17 01:27:22;;;;;;;12.13;3.35;;;10.70;49.50;;;;;;5060696;28;20343;-65
2023/05/17 01:29:49;;;;;;;14.05;3.10;;;10.70;51.90;;;;;;5060650;28;20029;-65
2023/05/17 01:32:16;;;;;;;14.15;3.08;;;10.60;54.00;;;;;;5060134;28;20029;-65
2023/05/17 01:34:42;;;;;;;11.15;2.75;;;10.50;59.90;;;;;;5076387;28;20355;-65
2023/05/17 01:37:09;;;;;;;9.60;2.80;;;10.50;63.50;;;;;;5059702;28;20120;-65
2023/05/17 01:39:35;;;;;;;8.45;2.63;;;10.40;61.00;;;;;;5060423;28;20029;-65
2023/05/17 01:42:02;;;;;;;9.10;3.30;;;10.40;63.20;;;;;;5059526;28;20033;-65
2023/05/17 01:44:47;;;;;;;6.25;2.35;;;10.30;66.40;;;;;;5060385;28;20032;-65
2023/05/17 01:47:29;;;;;;;10.45;2.80;;;10.30;67.30;;;;;;5043040;28;20427;-65
2023/05/17 01:49:58;;;;;;;14.82;3.13;;;10.30;67.30;;;;;;5059416;28;20032;-66
2023/05/17 01:52:30;;;;;;;10.45;3.00;;;10.20;70.80;;;;;;5076018;28;20144;-65
2023/05/17 01:54:59;;;;;;;;;;;10.20;70.50;;;;;;5060472;28;20032;-65
2023/05/17 01:57:30;;;;;;;10.55;3.15;;;10.10;75.80;;;;;;5060000;28;20194;-65
2023/05/17 02:00:00;;;;;;;11.80;3.38;;;10.10;73.80;;;;;;5059239;28;20040;-64
2023/05/17 02:02:28;;;;;;;13.02;3.20;;;10.10;75.70;;;;;;5059708;28;20400;-65
2023/05/17 02:04:54;;;;;;;8.60;3.35;;;10.10;77.70;;;;;;5058718;28;20149;-64
2023/05/17 02:07:20;;;;;;;10.77;3.47;;;10.10;79.40;;;;;;5059163;28;20116;-65
2023/05/17 02:09:46;;;;;;;16.05;4.57;;;10.10;81.60;;;;;;5059850;28;20029;-64
2023/05/17 02:12:11;;;;;;;18.15;4.70;;;10.20;87.90;;;;;;5059356;28;20029;-65
2023/05/17 02:14:37;;;;;;;11.45;3.92;;;10.20;85.50;;;;;;5058974;28;20033;-64
2023/05/17 02:17:04;;;;;;;11.35;3.92;;;10.30;83.90;;;;;;5058831;28;20025;-65
2023/05/17 02:19:31;;;;;;;11.93;3.50;;;10.30;84.30;;;;;;5059652;28;20313;-65
2023/05/17 02:21:57;;;;;;;10.02;3.45;;;10.40;82.70;;;;;;5058831;28;20116;-65
2023/05/17 02:24:22;;;;;;;10.80;3.80;;;10.30;83.00;;;;;;5042334;28;20130;-65
2023/05/17 02:26:48;;;;;;;11.93;3.75;;;10.30;81.50;;;;;;5059476;28;20478;-65
2023/05/17 02:29:14;;;;;;;14.25;3.95;;;10.30;81.90;;;;;;5059459;28;20036;-65
2023/05/17 02:31:40;;;;;;;8.85;3.60;;;10.40;80.70;;;;;;5059084;28;20026;-66
2023/05/17 02:34:06;;;;;;;9.95;3.30;;;10.40;76.10;;;;;;5058283;28;20104;-65
2023/05/17 02:36:32;;;;;;;9.05;3.35;;;10.40;78.10;;;;;;5059297;28;20102;-66
2023/05/17 02:38:58;;;;;;;9.07;3.42;;;10.30;75.70;;;;;;5059427;28;20350;-66
2023/05/17 02:41:24;;;;;;;10.30;3.40;;;10.10;78.80;;;;;;5041957;28;20132;-65
2023/05/17 02:43:50;;;;;;;8.10;3.00;;;9.90;90.30;;;;;;5058452;28;20444;-65
2023/05/17 02:46:16;;;;;;;9.77;3.60;;;9.90;90.60;;;;;;5058320;28;20071;-65
2023/05/17 02:48:43;;;;;;;11.30;3.65;;;9.90;93.10;;;;;;5058331;28;20053;-64
2023/05/17 02:51:09;;;;;;;8.35;3.53;;;9.90;93.20;;;;;;5058251;28;20116;-64
2023/05/17 02:53:35;;;;;;;9.38;3.63;;;9.90;93.40;;;;;;5058162;28;20029;-64
2023/05/17 02:56:02;;;;;;;11.65;3.45;;;10.00;92.00;;;;;;5058408;28;20032;-65
2023/05/17 02:58:28;;;;;;;7.90;3.83;;;10.00;89.20;;;;;;5058129;28;20036;-65
2023/05/17 03:00:54;;;;;;;14.18;4.35;;;10.00;86.80;;;;;;5058048;28;20308;-65
2023/05/17 03:03:21;;;;;;;10.77;3.92;;;9.90;90.60;;;;;;5058184;28;20301;-65
2023/05/17 03:05:46;;;;;;;11.65;4.07;;;9.90;90.60;;;;;;5057828;28;20041;-65
2023/05/17 03:08:12;;;;;;;10.13;3.92;;;9.90;90.40;;;;;;5058065;28;20041;-66
2023/05/17 03:10:39;;;;;;;7.47;3.63;;;9.90;90.20;;;;;;5041360;28;20146;-66
2023/05/17 03:13:06;;;;;;;11.25;4.45;;;9.80;91.00;;;;;;5041484;28;20040;-65
2023/05/17 03:15:36;;;;;;;11.93;3.92;;;9.70;91.90;;;;;;5057863;28;20037;-65
2023/05/17 03:18:03;;;;;;;9.82;4.15;;;9.60;94.70;;;;;;5057945;28;20124;-65
2023/05/17 03:20:28;;;;;;;13.27;4.30;;;9.70;94.90;;;;;;5041213;28;20041;-66
2023/05/17 03:22:55;;;;;;;12.10;4.82;;;9.70;95.40;;;;;;5057791;28;20043;-63
2023/05/17 03:25:21;;;;;;;10.95;4.43;;;9.80;96.00;;;;;;5058344;28;20037;-66
2023/05/17 03:27:47;;;;;;;13.00;4.60;;;9.80;97.20;;;;;;5024495;28;20033;-65
2023/05/17 03:30:13;;;;;;;12.82;5.13;;;9.70;97.40;;;;;;5057711;28;20088;-65
2023/05/17 03:32:39;;;;;;;14.43;4.72;;;9.80;99.30;;;;;;5057679;28;20036;-66
2023/05/17 03:35:06;;;;;;;15.77;4.40;;;9.90;99.30;;;;;;5024488;28;20362;-66
2023/05/17 03:37:33;;;;;;;12.50;4.35;;;9.80;98.20;;;;;;5057488;28;20312;-66
2023/05/17 03:39:59;;;;;;;13.00;4.07;;;9.70;99.90;;;;;;5057356;28;20037;-67
2023/05/17 03:42:26;;;;;;;10.57;4.57;;;9.50;99.90;;;;;;5040697;28;20044;-67
2023/05/17 03:44:52;;;;;;;13.63;5.18;;;9.50;99.90;;;;;;5057094;28;20473;-66
2023/05/17 03:47:22;;;;;;;11.82;4.90;;;9.40;99.90;;;;;;5057207;28;20039;-67
2023/05/17 03:49:49;;;;;;;12.68;4.75;;;9.50;99.90;;;;;;5057141;28;20278;-67
2023/05/17 03:52:15;;;;;;;13.13;4.72;;;9.30;99.90;;;;;;5057715;28;20025;-66
2023/05/17 03:54:41;;;;;;;11.80;5.47;;;9.30;99.90;;;;;;5056769;28;20250;-67
2023/05/17 03:57:07;;;;;;;15.90;5.10;;;9.50;99.90;;;;;;5040458;28;20036;-66
2023/05/17 03:59:34;;;;;;;16.83;5.70;;;9.50;99.90;;;;;;5057200;28;20053;-67
2023/05/17 04:02:00;;;;;;;16.08;5.85;;;9.30;99.90;;;;;;5040637;28;20035;-68
2023/05/17 04:04:27;;;;;;;15.88;6.57;;;9.20;99.90;;;;;;5056841;28;20052;-67
2023/05/17 04:06:53;;;;;;;13.15;6.05;;;9.20;99.90;;;;;;5057737;28;20033;-67
2023/05/17 04:09:19;;;;;;;11.85;5.47;;;9.50;99.90;;;;;;5057104;28;20029;-68
2023/05/17 04:11:45;;;;;;;19.17;6.35;;;9.70;99.90;;;;;;5023869;28;20040;-68
2023/05/17 04:14:11;;;;;;;13.23;6.00;;;9.90;99.90;;;;;;5056961;28;20029;-68
2023/05/17 04:16:36;;;;;;;14.10;6.43;;;10.10;99.90;;;;;;5057530;28;20455;-68
2023/05/17 04:19:03;;;;;;;13.68;6.22;;;10.10;99.90;;;;;;5056682;28;20040;-67
2023/05/17 04:21:29;;;;;;;12.98;5.43;;;10.00;99.90;;;;;;5056517;28;20036;-67
2023/05/17 04:23:55;;;;;;;16.52;6.05;;;10.10;99.90;;;;;;5039856;28;20399;-67
2023/05/17 04:26:21;;;;;;;16.27;5.43;;;10.20;99.90;;;;;;5057340;28;20056;-67
2023/05/17 04:28:47;;;;;;;14.98;6.32;;;10.30;99.90;;;;;;5056694;28;20035;-68
2023/05/17 04:31:16;;;;;;;9.65;5.82;;;10.40;99.90;;;;;;5056755;28;20065;-68
2023/05/17 04:33:42;;;;;;;14.90;5.40;;;10.50;99.90;;;;;;5056517;28;20079;-67
2023/05/17 04:36:09;;;;;;;11.40;5.93;;;10.70;99.90;;;;;;5056457;28;20044;-67
2023/05/17 04:38:36;;;;;;;15.85;5.63;;;10.80;99.90;;;;;;5056456;28;20412;-67
2023/05/17 04:41:05;;;;;;;15.75;5.20;;;10.90;99.90;;;;;;5056363;28;20500;-67
2023/05/17 04:43:35;;;;;;;14.68;5.90;;;11.00;99.90;;;;;;5056325;28;20040;-68
2023/05/17 04:46:04;;;;;;;12.30;5.28;;;11.10;99.90;;;;;;5056283;28;20033;-68
2023/05/17 04:48:31;;;;;;;12.10;5.30;;;11.20;99.30;;;;;;5056397;28;20033;-68
2023/05/17 04:51:01;;;;;;;10.80;5.47;;;11.20;99.10;;;;;;5056180;28;20083;-67
2023/05/17 04:53:27;;;;;;;11.27;5.38;;;11.20;98.90;;;;;;5056266;28;20045;-68
2023/05/17 04:55:54;;;;;;;13.55;5.28;;;11.30;99.10;;;;;;5056081;28;20040;-68
2023/05/17 04:58:20;;;;;;;15.82;5.65;;;11.20;99.90;;;;;;5039099;28;20136;-68
2023/05/17 05:00:51;;;;;;;15.80;5.50;;;11.20;99.90;;;;;;5056181;28;20041;-67
2023/05/17 05:03:17;;;;;;;12.75;5.07;;;11.20;99.90;;;;;;5056769;28;20059;-68
2023/05/17 05:05:44;;;;;;;12.02;5.38;;;11.40;99.90;;;;;;5055835;28;20087;-67
2023/05/17 05:08:11;;;;;;;14.18;5.45;;;11.50;99.90;;;;;;5056354;28;20355;-67
2023/05/17 05:10:37;;;;;;;13.45;4.93;;;11.60;99.90;;;;;;5056061;28;20047;-68
2023/05/17 05:13:03;;;;;;;11.10;4.40;;;11.70;98.40;;;;;;5055882;28;20025;-67
2023/05/17 05:15:31;;;;;;;21.02;5.00;;;11.80;97.80;;;;;;5055899;28;20099;-67
2023/05/17 05:17:58;;;;;;;18.00;5.07;;;11.90;97.00;;;;;;5055966;28;20048;-67
2023/05/17 05:20:24;;;;;;;16.30;4.88;;;12.10;96.40;;;;;;5055893;28;20103;-67
2023/05/17 05:22:50;;;;;;;13.55;4.28;;;12.10;93.50;;;;;;5056757;28;20033;-66
2023/05/17 05:25:17;;;;;;;14.45;4.35;;;12.30;91.60;;;;;;5039588;28;20047;-62
2023/05/17 05:27:44;;;;;;;11.57;3.88;;;12.40;90.10;;;;;;5055747;28;20380;-65
2023/05/17 05:30:12;;;;;;;13.90;4.18;;;12.60;81.50;;;;;;5056115;28;20270;-63
2023/05/17 05:32:38;;;;;;;10.32;3.60;;;12.80;70.70;;;;;;5055778;28;20035;-64
2023/05/17 05:35:04;;;;;;;11.70;3.90;;;12.90;69.10;;;;;;5056273;28;20115;-66
2023/05/17 05:37:30;;;;;;;11.95;3.75;;;13.00;61.10;;;;;;5056927;28;20041;-66
2023/05/17 05:39:57;;;;;;;13.23;3.88;;;13.10;55.00;;;;;;5055767;28;20103;-67
2023/05/17 05:42:23;;;;;;;10.13;4.25;;;13.20;51.20;;;;;;5039032;28;20060;-65
2023/05/17 05:44:49;;;;;;;11.65;3.33;;;13.30;43.50;;;;;;5056376;28;20068;-64
2023/05/17 05:47:16;;;;;;;12.38;3.97;;;13.40;34.10;;;;;;5023358;28;20401;-64
2023/05/17 05:49:42;;;;;;;17.02;4.20;;;13.50;29.50;;;;;;5039082;28;20143;-64
2023/05/17 05:52:08;;;;;;;13.02;3.70;;;13.60;19.90;;;;;;5055677;28;20025;-64
2023/05/17 05:54:35;;;;;;;9.18;3.65;;;13.70;15.30;;;;;;5055586;28;20116;-62
2023/05/17 05:57:01;;;;;;;10.57;3.95;;;13.70;9.20;;;;;;5039008;28;20040;-62
2023/05/17 05:59:27;;;;;;;19.30;3.72;;;13.90;4.50;;;;;;5055552;28;20033;-63
2023/05/17 06:01:53;;;;;;;10.98;3.35;;;13.90;1.00;;;;;;5055674;28;20033;-63
2023/05/17 06:04:18;;;;;;;9.45;3.22;;;13.90;1.00;;;;;;5056484;28;20057;-63
2023/05/17 06:06:44;;;;;;;11.75;3.72;;;13.80;1.00;;;;;;5055589;28;20312;-64
2023/05/17 06:09:13;;;;;;;15.27;4.57;;;13.80;1.00;;;;;;5059047;28;20039;-64
2023/05/17 06:11:39;;;;;;;12.07;3.20;;;13.90;1.00;;;;;;5059267;28;20032;-62
2023/05/17 06:14:05;;;;;;;15.35;4.18;;;14.00;1.00;;;;;;5059286;28;20410;-64
2023/05/17 06:16:30;;;;;;;13.48;3.47;;;14.10;1.00;;;;;;5059156;28;20028;-65
2023/05/17 06:18:56;;;;;;;13.07;3.58;;;14.00;1.00;;;;;;5059091;28;20087;-63
2023/05/17 06:21:22;;;;;;;11.98;3.53;;;14.10;1.00;;;;;;5058924;28;20037;-62
2023/05/17 06:23:48;;;;;;;15.40;4.00;;;14.10;1.00;;;;;;5058975;28;20036;-62
2023/05/17 06:26:13;;;;;;;9.20;3.45;;;14.20;1.00;;;;;;5059567;28;20036;-62
2023/05/17 06:28:39;;;;;;;13.57;3.55;;;14.20;1.00;;;;;;5059691;28;20273;-62
2023/05/17 06:31:05;;;;;;;14.35;3.47;;;14.30;1.00;;;;;;5058910;28;20304;-63
2023/05/17 06:33:31;;;;;;;10.52;3.83;;;14.30;1.00;;;;;;5059604;28;20025;-68
2023/05/17 06:35:57;;;;;;;12.93;3.63;;;14.40;1.00;;;;;;5058803;28;20032;-66
2023/05/17 06:38:23;;;;;;;10.43;3.83;;;14.30;1.00;;;;;;5058603;28;20033;-63
2023/05/17 06:40:57;;;;;;;11.35;3.45;;;14.30;1.00;;;;;;5059585;28;20040;-65
2023/05/17 06:43:23;;;;;;;10.45;3.92;;;14.30;1.00;;;;;;5058516;28;20040;-66
2023/05/17 06:45:49;;;;;;;9.18;3.13;;;14.30;1.00;;;;;;5041917;28;20343;-61
2023/05/17 06:48:15;;;;;;;12.32;3.40;;;14.10;1.00;;;;;;5058771;28;20029;-62
2023/05/17 06:50:41;;;;;;;14.38;4.00;;;14.00;1.00;;;;;;5041805;28;20021;-70
2023/05/17 06:53:07;;;;;;;9.15;3.33;;;14.00;1.00;;;;;;5059153;28;20025;-64
2023/05/17 06:55:33;;;;;;;11.63;3.70;;;14.10;1.00;;;;;;5041965;28;20306;-61
2023/05/17 06:57:59;;;;;;;10.23;2.72;;;14.10;1.00;;;;;;5059415;28;20037;-62
2023/05/17 07:00:25;;;;;;;7.68;2.83;;;14.10;1.00;;;;;;5041870;28;20100;-65
2023/05/17 07:02:51;;;;;;;11.15;3.13;;;14.20;1.00;;;;;;5059337;28;20032;-63
2023/05/17 07:05:17;;;;;;;11.07;3.30;;;14.10;1.00;;;;;;5058052;28;20114;-65
2023/05/17 07:07:42;;;;;;;11.63;3.00;;;14.20;1.00;;;;;;5058254;28;20172;-62
2023/05/17 07:10:08;;;;;;;7.93;2.95;;;14.30;1.00;;;;;;5059351;28;20033;-62
2023/05/17 07:12:34;;;;;;;11.18;3.28;;;14.40;1.00;;;;;;5057841;28;20146;-65
2023/05/17 07:15:00;;;;;;;9.98;3.00;;;14.60;1.00;;;;;;5059348;28;20087;-64
2023/05/17 07:17:26;;;;;;;12.05;3.25;;;14.80;1.00;;;;;;5058658;28;20086;-60
2023/05/17 07:19:52;;;;;;;13.95;3.28;;;15.10;1.00;;;;;;5057370;28;20108;-61
2023/05/17 07:22:18;;;;;;;17.23;3.55;;;15.20;1.00;;;;;;5058537;28;20029;-62
2023/05/17 07:24:44;;;;;;;7.20;2.70;;;15.40;1.00;;;;;;5057815;28;20498;-65
2023/05/17 07:27:11;;;;;;;13.38;3.13;;;15.40;1.00;;;;;;5058298;28;20033;-64
2023/05/17 07:29:36;;;;;;;11.10;2.85;;;15.50;1.00;;;;;;5058360;28;20017;-63
2023/05/17 07:32:03;;;;;;;10.32;2.92;;;15.70;1.00;;;;;;5057584;28;20150;-63
2023/05/17 07:34:30;;;;;;;9.70;3.05;;;15.70;1.00;;;;;;5041172;28;20114;-65
2023/05/17 07:36:55;;;;;;;10.38;2.92;;;15.70;1.00;;;;;;5057572;28;20343;-63
2023/05/17 07:39:21;;;;;;;9.52;2.50;;;15.70;1.00;;;;;;5057453;28;20033;-62
2023/05/17 07:41:47;;;;;;;19.70;2.95;;;15.80;99.90;;;;;;5058104;28;20087;-64
2023/05/17 07:44:13;;;;;;;6.70;2.03;;;15.80;99.90;;;;;;5058201;28;20103;-65
2023/05/17 07:46:39;;;;;;;8.75;2.17;;;15.90;99.90;;;;;;5057320;28;20033;-63
2023/05/17 07:49:05;;;;;;;6.55;1.98;;;16.10;99.90;;;;;;5058113;28;20112;-67
2023/05/17 07:51:30;;;;;;;5.60;1.42;;;16.10;1.00;;;;;;5057331;28;20320;-64
2023/05/17 07:53:56;;;;;;;7.65;1.70;;;15.80;1.00;;;;;;5058078;28;20029;-67
2023/05/17 07:56:22;;;;;;;9.25;2.20;;;15.90;1.00;;;;;;5058274;28;20037;-67
2023/05/17 07:58:48;;;;;;;6.10;1.75;;;16.00;1.00;;;;;;5057265;28;20041;-71
2023/05/17 08:01:14;;;;;;;7.70;1.73;;;16.30;1.00;;;;;;5057097;28;20057;-65
2023/05/17 08:03:46;;;;;;;5.30;1.80;;;16.30;1.00;;;;;;5057587;28;20342;-65
2023/05/17 08:06:14;;;;;;;4.85;1.60;;;16.40;99.90;;;;;;5057677;28;20037;-68
2023/05/17 08:08:40;;;;;;;4.82;1.58;;;16.30;1.00;;;;;;5057678;28;20056;-67
2023/05/17 08:11:06;;;;;;;7.32;1.77;;;16.20;1.00;;;;;;5057025;28;20447;-69
2023/05/17 08:13:32;;;;;;;6.70;1.85;;;16.10;1.00;;;;;;5057124;28;20029;-71
2023/05/17 08:16:02;;;;;;;13.82;2.13;;;16.00;99.90;;;;;;5058029;28;20043;-70
2023/05/17 08:18:29;;;;;;;5.05;1.70;;;16.10;99.90;;;;;;5057895;28;20292;-69
2023/05/17 08:20:55;;;;;;;5.70;1.67;;;16.10;99.90;;;;;;5057641;28;20033;-76
2023/05/17 08:23:21;;;;;;;6.82;1.85;;;16.00;1.00;;;;;;5057229;28;20359;-68
2023/05/17 08:25:47;;;;;;;6.57;2.15;;;15.90;1.00;;;;;;5056587;28;20036;-72
2023/05/17 08:28:13;;;;;;;5.93;1.92;;;15.90;1.00;;;;;;5056620;28;20296;-71
2023/05/17 08:30:38;;;;;;;7.95;2.15;;;16.10;99.90;;;;;;5057555;28;20457;-72
2023/05/17 08:33:04;;;;;;;6.38;2.10;;;16.10;1.00;;;;;;5056460;28;20021;-65
2023/05/17 08:35:30;;;;;;;9.15;2.88;;;16.30;1.00;;;;;;5056699;28;20057;-66
2023/05/17 08:37:56;;;;;;;9.73;2.40;;;16.30;1.00;;;;;;5039842;28;20040;-68
2023/05/17 08:40:22;;;;;;;9.50;2.33;;;16.50;99.90;;;;;;5056504;28;20083;-68
2023/05/17 08:42:51;;;;;;;8.18;1.95;;;16.50;1.00;;;;;;5057168;28;20116;-69
2023/05/17 08:45:17;;;;;;;6.60;2.10;;;16.50;99.90;;;;;;5040386;28;20396;-68
2023/05/17 08:47:45;;;;;;;7.93;2.38;;;16.40;99.90;;;;;;5056836;28;20035;-67
2023/05/17 08:50:11;;;;;;;8.32;2.25;;;16.40;99.90;;;;;;5057084;28;20317;-65
2023/05/17 08:52:39;;;;;;;10.25;2.00;;;16.30;99.90;;;;;;5056247;28;20029;-70
2023/05/17 08:55:07;;;;;;;6.20;2.00;;;16.10;1.00;;;;;;5056294;28;20076;-70
2023/05/17 08:57:37;;;;;;;7.72;2.05;;;16.10;1.00;;;;;;5056284;28;20029;-67
2023/05/17 09:00:14;;;;;;;9.52;1.98;;;16.10;1.00;;;;;;5056995;28;20043;-69
2023/05/17 09:02:43;;;;;;;8.90;2.30;;;16.00;99.90;;;;;;5057159;28;20415;-68
2023/05/17 09:05:09;;;;;;;10.48;2.00;;;16.00;1.00;;;;;;5055793;28;20049;-66
2023/05/17 09:07:35;;;;;;;7.95;1.70;;;16.00;1.00;;;;;;5039438;28;20346;-66
2023/05/17 09:10:05;;;;;;;7.43;1.80;;;15.90;1.00;;;;;;5056771;28;20033;-70
2023/05/17 09:12:34;;;;;;;5.28;1.88;;;16.00;1.00;;;;;;5056044;28;20045;-66
2023/05/17 09:15:17;;;;;;;7.75;1.98;;;16.20;1.00;;;;;;5055954;28;20107;-70
2023/05/17 09:17:50;;;;;;;8.75;1.85;;;16.30;99.90;;;;;;5055955;28;20072;-69
2023/05/17 09:20:24;;;;;;;6.90;2.05;;;16.50;1.00;;;;;;5055828;28;20384;-70
2023/05/17 09:22:51;;;;;;;7.00;1.45;;;16.20;99.90;;;;;;5055700;28;20396;-73
2023/05/17 09:25:22;;;;;;;10.07;2.22;;;16.40;99.90;;;;;;5055879;28;20098;-68
2023/05/17 09:27:52;;;;;;;8.05;2.00;;;16.60;99.90;;;;;;5072681;28;20408;-72
2023/05/17 09:30:17;;;;;;;5.93;1.75;;;16.40;99.90;;;;;;5055972;28;20033;-73
2023/05/17 09:32:46;;;;;;;12.90;2.28;;;16.50;99.90;;;;;;5039219;28;20091;-72
2023/05/17 09:35:12;;;;;;;13.88;2.83;;;16.50;1.00;;;;;;5056624;28;20044;-66
2023/05/17 09:37:41;;;;;;;6.97;1.92;;;16.60;1.00;;;;;;5039331;28;20033;-68
2023/05/17 09:40:07;;;;;;;7.40;1.70;;;16.70;9.10;;;;;;5039148;28;20021;-66
2023/05/17 09:42:38;;;;;;;6.90;1.60;;;16.80;99.90;;;;;;5039455;28;20354;-71
2023/05/17 09:45:04;;;;;;;7.30;1.90;;;17.00;99.90;;;;;;5060360;28;20048;-75
2023/05/17 09:47:32;;;;;;;7.80;1.70;;;17.10;1.00;;;;;;5060693;28;20365;-72
2023/05/17 09:50:03;;;;;;;9.32;2.10;;;17.30;1.00;;;;;;5060532;28;20029;-69
2023/05/17 09:52:30;;;;;;;8.07;2.00;;;17.70;1.00;;;;;;5060331;28;20028;-67
2023/05/17 09:54:57;;;;;;;6.00;1.75;;;18.00;1.00;;;;;;5060203;28;20029;-68
2023/05/17 09:57:27;;;;;;;8.63;1.50;;;18.30;1.00;;;;;;5060309;28;20033;-71
2023/05/17 09:59:57;;;;;;;13.55;2.15;;;18.50;1.00;;;;;;5059812;28;20040;-72
2023/05/17 10:02:34;;;;;;;7.78;2.08;;;18.30;1.00;;;;;;5060320;28;20041;-69
2023/05/17 10:05:07;;;;;;;6.57;1.75;;;18.20;1.00;;;;;;5059436;28;20049;-64
2023/05/17 10:07:33;;;;;;;10.52;2.20;;;18.00;1.00;;;;;;5060078;28;20102;-64
2023/05/17 10:10:00;;;;;;;9.40;1.95;;;18.00;1.00;;;;;;5059381;28;20040;-72
2023/05/17 10:12:32;;;;;;;7.45;1.67;;;18.00;1.00;;;;;;5060071;28;20025;-74
2023/05/17 10:14:59;;;;;;;8.45;1.80;;;18.00;1.00;;;;;;5060993;28;20100;-67
2023/05/17 10:17:29;;;;;;;5.35;1.77;;;17.90;47.20;;;;;;5059938;28;20339;-66
2023/05/17 10:19:55;;;;;;;5.07;1.23;;;17.90;99.90;;;;;;5059085;28;20060;-69
2023/05/17 10:22:22;;;;;;;9.05;1.65;;;17.70;99.90;;;;;;5059054;28;20297;-66
2023/05/17 10:24:50;;;;;;;7.45;1.88;;;17.70;1.00;;;;;;5042476;28;20086;-71
2023/05/17 10:27:16;;;;;;;7.35;2.00;;;17.60;1.00;;;;;;5042437;28;20072;-73
2023/05/17 10:29:43;;;;;;;7.43;1.60;;;17.60;1.00;;;;;;5058955;28;20029;-70
2023/05/17 10:32:12;;;;;;;9.05;2.00;;;17.60;1.00;;;;;;5059575;28;20028;-68
2023/05/17 10:34:39;;;;;;;7.78;1.63;;;18.00;99.90;;;;;;5059559;28;20032;-67
2023/05/17 10:37:05;;;;;;;6.82;1.95;;;18.10;99.90;;;;;;5059493;28;20021;-68
2023/05/17 10:39:33;;;;;;;5.90;1.90;;;18.30;1.00;;;;;;5058619;28;20037;-70
2023/05/17 10:42:06;;;;;;;6.78;2.00;;;18.70;1.00;;;;;;5059372;28;20029;-64
2023/05/17 10:44:32;;;;;;;;;;;18.70;99.90;;;;;;5059645;28;20119;-70
2023/05/17 10:46:59;;;;;;;7.82;1.70;;;18.60;1.00;;;;;;5059113;28;19912;-70
2023/05/17 10:49:28;;;;;;;11.05;2.30;;;18.60;99.90;;;;;;5059252;28;20040;-68
2023/05/17 10:51:56;;;;;;;7.07;1.63;;;18.60;99.90;;;;;;5059386;28;20029;-71
2023/05/17 10:54:38;;;;;;;5.65;1.40;;;18.50;1.00;;;;;;5057606;28;20040;-68
2023/05/17 10:57:05;;;;;;;10.25;1.63;;;18.60;1.00;;;;;;5059363;28;20039;-67
2023/05/17 10:59:32;;;;;;;6.93;1.40;;;19.30;1.00;;;;;;5041686;28;20036;-68
2023/05/17 11:02:05;;;;;;;4.47;1.15;;;19.80;8.00;;;;;;5059076;28;20037;-68
2023/05/17 11:04:40;;;;;;;11.10;1.80;;;20.30;99.90;;;;;;5058998;28;20316;-69
2023/05/17 11:07:20;;;;;;;4.32;1.42;;;21.00;1.00;;;;;;5059182;28;20296;-68
2023/05/17 11:09:54;;;;;;;3.95;1.20;;;20.10;1.00;;;;;;5058871;28;20025;-69
2023/05/17 11:12:30;;;;;;;4.57;1.40;;;20.70;30.70;;;;;;5058830;28;20029;-69
2023/05/17 11:14:56;;;;;;;5.03;1.42;;;22.30;1.00;;;;;;5058733;28;20054;-65
2023/05/17 11:17:25;;;;;;;5.38;1.35;;;22.70;1.00;;;;;;5058026;28;20163;-62
2023/05/17 11:19:55;;;;;;;7.75;1.45;;;23.10;1.00;;;;;;5058165;28;20103;-69
2023/05/17 11:22:25;;;;;;;6.40;1.55;;;22.70;1.00;;;;;;5057891;28;20029;-67
2023/05/17 11:24:53;;;;;;;4.20;1.30;;;22.90;99.90;;;;;;5058769;28;20083;-76
2023/05/17 11:27:25;;;;;;;8.57;0.98;;;23.90;1.00;;;;;;5057832;28;20274;-73
2023/05/17 11:29:55;;;;;;;6.22;1.13;;;23.50;99.90;;;;;;5057917;28;20047;-69
2023/05/17 11:32:28;;;;;;;2.88;1.00;;;24.00;99.90;;;;;;5058424;28;20029;-69
2023/05/17 11:34:54;;;;;;;4.35;1.33;;;24.50;99.90;;;;;;5057551;28;20041;-70
2023/05/17 11:37:27;;;;;;;3.20;0.90;;;23.80;99.90;;;;;;5057556;28;20103;-68
2023/05/17 11:40:03;;;;;;;3.47;1.10;;;25.40;99.90;;;;;;5058267;28;20037;-69
2023/05/17 11:42:30;;;;;;;7.70;1.40;;;26.70;99.90;;;;;;5058400;28;20059;-68
2023/05/17 11:44:57;;;;;;;4.30;1.10;;;27.20;56.60;;;;;;5058342;28;20347;-67
2023/05/17 11:47:24;;;;;;;5.75;1.40;;;27.10;35.60;;;;;;5058149;28;20479;-65
2023/05/17 11:49:51;;;;;;;4.82;1.13;;;27.00;20.80;;;;;;5058784;28;20029;-67
2023/05/17 11:52:17;;;;;;;3.53;0.90;;;28.20;8.70;;;;;;5057992;28;20021;-66
2023/05/17 11:54:45;;;;;;;4.05;1.45;;;26.70;1.70;;;;;;5058167;28;20071;-74
2023/05/17 11:57:15;;;;;;;4.30;1.00;;;27.00;2.80;;;;;;5057332;28;20028;-67
2023/05/17 11:59:44;;;;;;;4.50;1.20;;;27.70;1.00;;;;;;5058149;28;20037;-65
2023/05/17 12:02:25;;;;;;;4.68;1.45;;;28.60;1.00;;;;;;5057228;28;20135;-65
2023/05/17 12:04:51;;;;;;;2.97;1.10;;;25.80;1.00;;;;;;5057863;28;20293;-66
2023/05/17 12:07:17;;;;;;;3.13;1.00;;;25.20;1.00;;;;;;5040250;28;20056;-63
2023/05/17 12:09:44;;;;;;;2.38;0.95;;;25.40;1.00;;;;;;5057060;28;20041;-68
2023/05/17 12:12:10;;;;;;;5.10;1.13;;;25.30;1.00;;;;;;5057112;28;20025;-68
2023/05/17 12:14:36;;;;;;;5.65;1.25;;;24.40;1.00;;;;;;5057757;28;20043;-65
2023/05/17 12:17:04;;;;;;;6.13;1.48;;;25.80;1.00;;;;;;5056982;28;20040;-68
2023/05/17 12:19:31;;;;;;;4.97;1.05;;;26.70;1.00;;;;;;5056875;28;20057;-67
2023/05/17 12:22:17;;;;;;;5.22;1.13;;;27.50;1.00;;;;;;5057129;28;20033;-67
2023/05/17 12:24:43;;;;;;;6.78;1.30;;;27.50;1.00;;;;;;5057537;28;20379;-69
2023/05/17 12:27:09;;;;;;;5.00;1.00;;;28.40;1.00;;;;;;5056492;28;20065;-72
2023/05/17 12:29:35;;;;;;;4.80;1.30;;;28.40;1.00;;;;;;5057509;28;20037;-68
2023/05/17 12:32:01;;;;;;;11.38;1.38;;;28.20;1.00;;;;;;5040118;28;20328;-67
2023/05/17 12:34:28;;;;;;;3.17;1.17;;;27.90;1.00;;;;;;5057451;28;20035;-69
2023/05/17 12:36:54;;;;;;;3.88;1.50;;;27.50;1.00;;;;;;5056867;28;20360;-66
2023/05/17 12:39:24;;;;;;;4.07;1.00;;;25.80;1.00;;;;;;5057239;28;20052;-64
2023/05/17 12:41:51;;;;;;;5.10;1.20;;;24.60;1.00;;;;;;5057225;28;20029;-67
2023/05/17 12:44:19;;;;;;;4.15;1.05;;;23.60;1.00;;;;;;5056373;28;20063;-66
2023/05/17 12:46:52;;;;;;;3.83;1.40;;;22.80;1.00;;;;;;5056979;28;20052;-67
2023/05/17 12:49:21;;;;;;;6.15;1.23;;;22.70;1.00;;;;;;5057630;28;20033;-67